Time;durP1;ratioP1;P1;durP2;ratioP2;P2;SDS_P1;SDS_P2;PMS_P1;PMS_P2;Temp;Humidity;BMP_temperature;BMP_pressure;BME280_temperature;BME280_humidity;BME280_pressure;Samples;Min_cycle;Max_cycle;Signal;HPM_P1;HPM_P2
2023/09/21 00:00:36;;;;;;;3.92;1.25;;;16.80;99.90;;;;;;5056216;28;20040;-90
2023/09/21 00:03:02;;;;;;;3.78;1.63;;;17.50;99.90;;;;;;5054166;28;20036;-94
2023/09/21 00:05:31;;;;;;;3.47;1.33;;;16.80;99.90;;;;;;5073269;28;20036;-93
2023/09/21 00:07:57;;;;;;;6.63;1.40;;;;;;;;;;5074007;28;20040;-90
2023/09/21 00:10:25;;;;;;;5.22;1.40;;;16.40;99.90;;;;;;5072532;28;20047;-91
2023/09/21 00:12:51;;;;;;;8.88;1.48;;;16.80;99.90;;;;;;5057855;28;20040;-90
2023/09/21 00:15:17;;;;;;;2.55;1.45;;;16.70;99.90;;;;;;5074174;28;20047;-94
2023/09/21 00:17:48;;;;;;;5.55;1.80;;;16.70;99.90;;;;;;5038178;28;20238;-87
2023/09/21 00:20:23;;;;;;;5.10;1.45;;;16.70;99.90;;;;;;5032576;28;20038;-87
2023/09/21 00:22:50;;;;;;;4.38;1.60;;;16.70;99.90;;;;;;5043533;28;20051;-92
2023/09/21 00:25:17;;;;;;;3.25;1.40;;;16.70;99.90;;;;;;5030249;28;20044;-90
2023/09/21 00:27:44;;;;;;;4.40;1.40;;;;;;;;;;5033671;28;20510;-93
2023/09/21 00:30:11;;;;;;;3.92;1.55;;;16.50;99.90;;;;;;5022851;28;20065;-91
2023/09/21 00:32:40;;;;;;;4.20;1.52;;;16.60;99.90;;;;;;5024455;28;20114;-86
2023/09/21 00:35:11;;;;;;;2.95;1.20;;;16.60;99.90;;;;;;5029999;28;20640;-92
2023/09/21 00:37:40;;;;;;;4.53;1.20;;;16.60;99.90;;;;;;5019298;28;20040;-87
2023/09/21 00:40:20;;;;;;;3.83;1.35;;;16.50;99.90;;;;;;5023015;28;20041;-87
2023/09/21 00:42:52;;;;;;;3.83;1.38;;;16.70;99.90;;;;;;5038533;28;20045;-90
2023/09/21 00:45:20;;;;;;;;;;;16.50;99.90;;;;;;5020397;28;20049;-87
2023/09/21 00:47:49;;;;;;;4.22;1.08;;;16.80;99.90;;;;;;5046180;28;19920;-91
2023/09/21 00:50:18;;;;;;;5.75;1.63;;;16.80;99.90;;;;;;5030883;28;20146;-90
2023/09/21 00:52:45;;;;;;;4.32;1.55;;;16.80;99.90;;;;;;5012622;28;20414;-92
2023/09/21 00:55:16;;;;;;;3.92;1.35;;;16.70;99.90;;;;;;5017164;28;20037;-91
2023/09/21 00:57:43;;;;;;;7.85;2.10;;;16.70;99.90;;;;;;5030736;28;20692;-89
2023/09/21 01:00:15;;;;;;;5.18;1.38;;;16.80;99.90;;;;;;5027359;28;20042;-94
2023/09/21 01:02:43;;;;;;;5.18;1.52;;;16.60;99.90;;;;;;5014174;28;20044;-92
2023/09/21 01:05:17;;;;;;;7.03;1.98;;;16.70;99.90;;;;;;5017098;28;20033;-88
2023/09/21 01:07:45;;;;;;;5.20;1.30;;;16.60;99.90;;;;;;5012502;28;20045;-92
2023/09/21 01:10:12;;;;;;;6.95;1.90;;;;;;;;;;5033092;28;20079;-92
2023/09/21 01:12:43;;;;;;;5.85;1.45;;;16.60;99.90;;;;;;5021619;28;20045;-92
2023/09/21 01:15:10;;;;;;;4.07;1.45;;;16.60;99.90;;;;;;5017231;28;20048;-92
2023/09/21 01:17:39;;;;;;;3.58;1.38;;;16.60;99.90;;;;;;5058253;28;20063;-90
2023/09/21 01:20:23;;;;;;;4.57;1.85;;;16.50;99.90;;;;;;5072086;28;20152;-91
2023/09/21 01:23:11;;;;;;;4.97;1.38;;;16.50;99.90;;;;;;5072349;28;20040;-87
2023/09/21 01:25:42;;;;;;;4.10;1.40;;;16.50;99.90;;;;;;5069525;28;20400;-91
2023/09/21 01:28:18;;;;;;;5.78;1.52;;;16.50;99.90;;;;;;5055196;28;20036;-86
2023/09/21 01:30:44;;;;;;;3.92;1.52;;;;;;;;;;5043976;28;20140;-91
2023/09/21 01:33:15;;;;;;;6.82;2.47;;;16.50;99.90;;;;;;5053065;28;20520;-88
2023/09/21 01:35:47;;;;;;;4.88;1.45;;;16.40;99.90;;;;;;5072207;28;20052;-92
2023/09/21 01:38:13;;;;;;;4.72;1.33;;;16.50;99.90;;;;;;5052518;28;20047;-87
2023/09/21 01:40:41;;;;;;;4.20;1.95;;;16.30;99.90;;;;;;5062904;28;20047;-90
2023/09/21 01:43:08;;;;;;;3.92;1.30;;;;;;;;;;5048818;28;20043;-88
2023/09/21 01:45:40;;;;;;;5.18;1.42;;;16.50;99.90;;;;;;5054650;28;20044;-90
2023/09/21 01:48:10;;;;;;;3.63;1.40;;;16.50;99.90;;;;;;5055900;28;20035;-90
2023/09/21 01:50:46;;;;;;;4.43;1.17;;;16.70;99.90;;;;;;5059658;28;20048;-93
2023/09/21 01:53:13;;;;;;;3.22;1.15;;;16.40;99.90;;;;;;5050304;28;20047;-93
2023/09/21 01:55:40;;;;;;;6.15;1.42;;;16.10;99.90;;;;;;5083660;28;20043;-89
2023/09/21 01:58:09;;;;;;;4.22;1.17;;;16.40;99.90;;;;;;5071572;28;20044;-90
2023/09/21 02:00:39;;;;;;;4.75;1.23;;;16.40;99.90;;;;;;5052964;28;20597;-91
2023/09/21 02:03:17;;;;;;;4.40;1.60;;;16.40;99.90;;;;;;5054945;28;20130;-89
2023/09/21 02:05:43;;;;;;;3.10;1.23;;;16.50;99.90;;;;;;5054980;28;20528;-88
2023/09/21 02:08:10;;;;;;;8.13;1.52;;;16.50;99.90;;;;;;5047135;28;20040;-86
2023/09/21 02:10:43;;;;;;;3.70;1.20;;;16.60;99.90;;;;;;5053848;28;20047;-90
2023/09/21 02:13:10;;;;;;;3.65;1.50;;;16.70;99.90;;;;;;5071711;28;20459;-90
2023/09/21 02:15:38;;;;;;;2.42;1.05;;;16.50;99.90;;;;;;5065936;28;20051;-92
2023/09/21 02:18:05;;;;;;;2.13;0.75;;;16.50;99.90;;;;;;5049302;28;20550;-87
2023/09/21 02:20:32;;;;;;;5.05;1.42;;;16.60;99.90;;;;;;5041344;28;20040;-86
2023/09/21 02:22:59;;;;;;;6.53;1.10;;;16.60;99.90;;;;;;5023345;28;20672;-87
2023/09/21 02:25:26;;;;;;;5.10;0.93;;;16.80;99.90;;;;;;5033338;28;20051;-92
2023/09/21 02:27:52;;;;;;;2.28;1.25;;;16.40;99.90;;;;;;5028952;28;20048;-87
2023/09/21 02:30:20;;;;;;;3.85;1.00;;;16.40;99.90;;;;;;5048438;28;20555;-89
2023/09/21 02:32:54;;;;;;;3.65;0.98;;;16.60;99.90;;;;;;5027835;28;20049;-87
2023/09/21 02:35:26;;;;;;;4.68;1.35;;;16.40;99.90;;;;;;5033063;28;20044;-91
2023/09/21 02:37:56;;;;;;;3.70;1.10;;;16.40;99.90;;;;;;5028920;28;20114;-94
2023/09/21 02:40:24;;;;;;;4.10;1.25;;;16.40;99.90;;;;;;5037539;28;20041;-87
2023/09/21 02:42:52;;;;;;;5.20;1.20;;;16.30;99.90;;;;;;5050841;28;20161;-87
2023/09/21 02:45:20;;;;;;;2.10;1.00;;;16.30;99.90;;;;;;5029573;28;20032;-91
2023/09/21 02:47:47;;;;;;;4.32;1.10;;;16.30;99.90;;;;;;5031536;28;20051;-90
2023/09/21 02:50:14;;;;;;;6.93;1.42;;;16.30;99.90;;;;;;5030826;28;20040;-89
2023/09/21 02:52:47;;;;;;;4.80;0.98;;;16.20;99.90;;;;;;5031340;28;20128;-87
2023/09/21 02:55:17;;;;;;;4.88;1.80;;;16.20;99.90;;;;;;5030402;28;20044;-89
2023/09/21 02:57:47;;;;;;;3.67;1.15;;;16.20;99.90;;;;;;5026840;28;20037;-88
2023/09/21 03:00:21;;;;;;;3.35;1.10;;;16.20;99.90;;;;;;5027419;28;20044;-86
2023/09/21 03:02:49;;;;;;;2.75;1.33;;;16.20;99.90;;;;;;5046580;28;20045;-88
2023/09/21 03:05:19;;;;;;;3.80;1.20;;;16.10;99.90;;;;;;5045392;28;20129;-94
2023/09/21 03:07:45;;;;;;;4.78;1.27;;;16.10;99.90;;;;;;5031236;28;20685;-87
2023/09/21 03:10:12;;;;;;;4.63;1.25;;;16.10;99.90;;;;;;5046269;28;20048;-89
2023/09/21 03:12:38;;;;;;;3.60;1.10;;;16.10;99.90;;;;;;5030130;28;20731;-88
2023/09/21 03:15:24;;;;;;;2.38;0.80;;;16.10;99.90;;;;;;5045824;28;20611;-90
2023/09/21 03:17:54;;;;;;;3.22;0.98;;;16.00;99.90;;;;;;5045190;28;20064;-92
2023/09/21 03:20:30;;;;;;;6.55;1.25;;;16.00;99.90;;;;;;5042077;28;20056;-91
2023/09/21 03:22:57;;;;;;;6.63;1.38;;;;;;;;;;5029482;28;20072;-91
2023/09/21 03:25:29;;;;;;;3.28;1.17;;;16.00;99.90;;;;;;5029922;28;20033;-91
2023/09/21 03:27:59;;;;;;;4.85;1.20;;;16.00;99.90;;;;;;5037134;28;20086;-85
2023/09/21 03:30:28;;;;;;;3.20;0.88;;;16.00;99.90;;;;;;5046214;28;20091;-92
2023/09/21 03:32:54;;;;;;;3.30;1.52;;;16.00;99.90;;;;;;5051451;28;20044;-85
2023/09/21 03:35:21;;;;;;;2.63;1.02;;;16.00;99.90;;;;;;5049220;28;20048;-86
2023/09/21 03:37:50;;;;;;;3.67;1.25;;;16.10;99.90;;;;;;5050779;28;20083;-87
2023/09/21 03:40:17;;;;;;;2.83;0.98;;;16.00;99.90;;;;;;5029798;28;20706;-93
2023/09/21 03:42:44;;;;;;;6.32;1.08;;;;;;;;;;5035568;28;20044;-92
2023/09/21 03:45:14;;;;;;;2.80;1.02;;;15.90;99.90;;;;;;5016739;28;20041;-89
2023/09/21 03:47:40;;;;;;;6.43;1.35;;;16.30;99.90;;;;;;5033650;28;20043;-89
2023/09/21 03:50:12;;;;;;;3.10;1.58;;;15.80;99.90;;;;;;5049976;28;20052;-93
2023/09/21 03:52:42;;;;;;;5.20;0.90;;;15.80;99.90;;;;;;5033880;28;20029;-87
2023/09/21 03:55:15;;;;;;;3.05;1.15;;;15.80;99.90;;;;;;5047570;28;20037;-89
2023/09/21 03:57:41;;;;;;;2.40;1.15;;;;;;;;;;5050336;28;20048;-90
2023/09/21 04:00:19;;;;;;;6.53;1.15;;;15.80;99.90;;;;;;5033725;28;20036;-90
2023/09/21 04:02:45;;;;;;;6.20;1.27;;;15.90;99.90;;;;;;5033343;28;20139;-88
2023/09/21 04:05:13;;;;;;;4.00;1.48;;;15.70;99.90;;;;;;5050321;28;20205;-91
2023/09/21 04:07:39;;;;;;;4.43;1.20;;;;;;;;;;5034349;28;20078;-89
2023/09/21 04:10:06;;;;;;;2.95;1.23;;;15.60;99.90;;;;;;5033524;28;20537;-88
2023/09/21 04:12:32;;;;;;;3.63;1.10;;;15.60;99.90;;;;;;5039136;28;20044;-90
2023/09/21 04:14:58;;;;;;;3.83;0.95;;;15.60;99.90;;;;;;5033996;28;20113;-92
2023/09/21 04:17:26;;;;;;;2.45;0.85;;;15.70;99.90;;;;;;5045426;28;20053;-91
2023/09/21 04:19:53;;;;;;;3.15;1.10;;;;;;;;;;5035615;28;20040;-88
2023/09/21 04:22:19;;;;;;;2.70;1.30;;;15.70;99.90;;;;;;5033706;28;20056;-89
2023/09/21 04:24:45;;;;;;;3.15;1.00;;;;;;;;;;5019286;28;20105;-88
2023/09/21 04:27:11;;;;;;;4.50;1.20;;;15.70;99.90;;;;;;5022924;28;20041;-87
2023/09/21 04:29:38;;;;;;;3.10;1.20;;;;;;;;;;5019531;28;20086;-91
2023/09/21 04:32:04;;;;;;;6.70;1.33;;;;;;;;;;5019302;28;20509;-88
2023/09/21 04:34:31;;;;;;;2.33;1.50;;;;;;;;;;5034078;28;20047;-90
2023/09/21 04:36:57;;;;;;;3.97;1.13;;;;;;;;;;5012920;28;20047;-93
2023/09/21 04:39:23;;;;;;;2.90;0.90;;;;;;;;;;5016357;28;20049;-89
2023/09/21 04:41:55;;;;;;;3.17;1.08;;;;;;;;;;5032443;28;20616;-91
2023/09/21 04:44:24;;;;;;;;;;;15.60;99.90;;;;;;5015760;28;20044;-88
2023/09/21 04:46:50;;;;;;;4.32;1.05;;;;;;;;;;5037268;28;20566;-91
2023/09/21 04:49:17;;;;;;;5.60;1.30;;;;;;;;;;5031336;28;20076;-87
2023/09/21 04:51:43;;;;;;;2.58;1.10;;;;;;;;;;5038899;28;20601;-89
2023/09/21 04:54:09;;;;;;;4.25;0.95;;;;;;;;;;5037711;28;20049;-88
2023/09/21 04:56:36;;;;;;;3.40;1.23;;;;;;;;;;5020111;28;20036;-91
2023/09/21 04:59:03;;;;;;;3.10;1.10;;;15.70;99.90;;;;;;5018384;28;20701;-90
2023/09/21 05:01:29;;;;;;;2.28;1.10;;;;;;;;;;5030074;28;20044;-88
2023/09/21 05:03:56;;;;;;;5.00;1.30;;;;;;;;;;5019155;28;20045;-93
2023/09/21 05:06:23;;;;;;;2.78;1.23;;;;;;;;;;5021209;28;20041;-88
2023/09/21 05:08:49;;;;;;;3.72;1.20;;;;;;;;;;5025689;28;20040;-90
2023/09/21 05:11:15;;;;;;;2.22;0.82;;;;;;;;;;5026581;28;20071;-86
2023/09/21 05:13:41;;;;;;;2.95;0.90;;;;;;;;;;5020768;28;20051;-93
2023/09/21 05:16:08;;;;;;;4.15;1.40;;;15.80;99.90;;;;;;5050443;28;20059;-85
2023/09/21 05:18:34;;;;;;;4.22;1.20;;;;;;;;;;5040320;28;20063;-88
2023/09/21 05:21:04;;;;;;;3.72;1.23;;;;;;;;;;5017917;28;20077;-88
2023/09/21 05:23:30;;;;;;;4.72;0.80;;;;;;;;;;5018807;28;20127;-87
2023/09/21 05:25:56;;;;;;;3.13;1.00;;;16.00;99.90;;;;;;5008692;28;20041;-90
2023/09/21 05:28:22;;;;;;;2.72;1.17;;;16.10;99.90;;;;;;5009249;28;20049;-93
2023/09/21 05:30:48;;;;;;;3.50;0.93;;;16.20;99.90;;;;;;5001812;28;20037;-91
2023/09/21 05:33:13;;;;;;;3.75;1.35;;;16.30;99.90;;;;;;5041614;28;20403;-87
2023/09/21 05:35:39;;;;;;;3.55;1.20;;;16.30;99.90;;;;;;5030177;28;20095;-87
2023/09/21 05:38:06;;;;;;;1.77;0.70;;;;;;;;;;5020930;28;20874;-90
2023/09/21 05:40:35;;;;;;;2.90;0.98;;;16.60;99.90;;;;;;5030153;28;20037;-87
2023/09/21 05:43:01;;;;;;;3.33;1.17;;;;;;;;;;5014766;28;20055;-89
2023/09/21 05:45:27;;;;;;;2.20;0.95;;;17.30;99.90;;;;;;5016060;28;20544;-91
2023/09/21 05:47:53;;;;;;;2.60;1.08;;;17.20;99.90;;;;;;5033876;28;20099;-87
2023/09/21 05:50:19;;;;;;;4.20;0.95;;;;;;;;;;5031418;28;20048;-89
2023/09/21 05:52:44;;;;;;;3.45;1.33;;;17.90;99.90;;;;;;5019028;28;20048;-88
2023/09/21 05:55:11;;;;;;;5.75;1.23;;;;;;;;;;5031094;28;20094;-90
2023/09/21 05:57:39;;;;;;;4.90;0.95;;;18.70;99.90;;;;;;5017712;28;20090;-89
2023/09/21 06:00:08;;;;;;;3.40;0.80;;;20.00;99.90;;;;;;5007926;28;20499;-87
2023/09/21 06:02:34;;;;;;;2.55;0.85;;;19.30;99.90;;;;;;5008480;28;20029;-87
2023/09/21 06:05:00;;;;;;;3.92;0.93;;;;;;;;;;5014031;28;20045;-94
2023/09/21 06:07:27;;;;;;;4.25;1.73;;;;;;;;;;5028035;28;20040;-88
2023/09/21 06:09:53;;;;;;;4.85;0.90;;;;;;;;;;5025211;28;20049;-87
2023/09/21 06:12:19;;;;;;;3.65;0.93;;;;;;;;;;5046656;28;20122;-88
2023/09/21 06:14:50;;;;;;;3.45;1.38;;;;;;;;;;5035698;28;20045;-88
2023/09/21 06:17:19;;;;;;;3.60;1.00;;;18.70;99.90;;;;;;5046040;28;20085;-91
2023/09/21 06:19:46;;;;;;;4.22;1.25;;;;;;;;;;5004812;28;20491;-90
2023/09/21 06:22:20;;;;;;;6.75;1.00;;;18.70;99.90;;;;;;5021098;28;20049;-89
2023/09/21 06:24:46;;;;;;;3.17;0.95;;;;;;;;;;5009633;28;20056;-89
2023/09/21 06:27:14;;;;;;;4.40;1.20;;;;;;;;;;5017487;28;20041;-85
2023/09/21 06:29:41;;;;;;;3.47;1.30;;;;;;;;;;5028794;28;20322;-85
2023/09/21 06:32:07;;;;;;;2.97;0.88;;;;;;;;;;5031603;28;20033;-86
2023/09/21 06:34:34;;;;;;;2.42;1.02;;;18.60;99.90;;;;;;5029972;28;20045;-88
2023/09/21 06:37:00;;;;;;;1.77;0.60;;;;;;;;;;5062111;28;20060;-86
2023/09/21 06:39:26;;;;;;;4.85;1.08;;;18.60;99.90;;;;;;5048036;28;20086;-87
2023/09/21 06:41:51;;;;;;;4.20;1.17;;;18.40;99.90;;;;;;5029146;28;20782;-88
2023/09/21 06:44:18;;;;;;;2.33;1.00;;;18.80;99.90;;;;;;5014091;28;20052;-90
2023/09/21 06:46:44;;;;;;;2.67;1.15;;;18.70;99.90;;;;;;5042893;28;20049;-90
2023/09/21 06:49:10;;;;;;;4.95;1.00;;;;;;;;;;5042937;28;20045;-87
2023/09/21 06:51:36;;;;;;;4.55;1.13;;;;;;;;;;5030557;28;20041;-88
2023/09/21 06:54:03;;;;;;;3.22;1.33;;;;;;;;;;5029059;28;20045;-86
2023/09/21 06:56:31;;;;;;;5.65;1.48;;;19.00;99.90;;;;;;5029194;28;20501;-91
2023/09/21 06:59:07;;;;;;;2.83;1.10;;;18.90;99.90;;;;;;5029071;28;20048;-90
2023/09/21 07:01:34;;;;;;;2.75;0.98;;;18.90;99.90;;;;;;5021399;28;20051;-90
2023/09/21 07:04:03;;;;;;;2.00;0.88;;;18.90;99.90;;;;;;5016704;28;20044;-93
2023/09/21 07:06:30;;;;;;;3.65;1.00;;;18.90;99.90;;;;;;5030734;28;20036;-91
2023/09/21 07:08:57;;;;;;;4.25;1.10;;;18.80;99.90;;;;;;5016432;28;20051;-94
2023/09/21 07:11:26;;;;;;;2.55;0.93;;;19.00;99.90;;;;;;5014376;28;20505;-92
2023/09/21 07:13:52;;;;;;;3.25;1.17;;;19.00;99.90;;;;;;5025075;28;20041;-90
2023/09/21 07:16:21;;;;;;;4.07;0.93;;;19.00;99.90;;;;;;5017653;28;20119;-87
2023/09/21 07:18:48;;;;;;;4.50;0.90;;;19.00;99.90;;;;;;5070839;28;20050;-94
2023/09/21 07:21:14;;;;;;;2.55;1.05;;;19.00;99.90;;;;;;5076011;28;20044;-95
2023/09/21 07:23:40;;;;;;;6.55;1.30;;;19.30;99.90;;;;;;5070999;28;20089;-91
2023/09/21 07:26:09;;;;;;;3.45;1.27;;;19.10;99.90;;;;;;5066725;28;20523;-93
2023/09/21 07:28:35;;;;;;;3.30;0.98;;;19.30;99.90;;;;;;5058538;28;20031;-91
2023/09/21 07:31:02;;;;;;;2.28;1.00;;;19.30;99.90;;;;;;5057383;28;20044;-91
2023/09/21 07:33:30;;;;;;;3.72;1.25;;;19.30;99.90;;;;;;5055455;28;20336;-88
2023/09/21 07:35:56;;;;;;;2.42;0.73;;;19.40;99.90;;;;;;5055404;28;20032;-93
2023/09/21 07:38:23;;;;;;;4.28;0.90;;;19.50;99.90;;;;;;5057964;28;20036;-90
2023/09/21 07:40:49;;;;;;;3.65;1.17;;;19.60;99.90;;;;;;5054195;28;20044;-90
2023/09/21 07:43:16;;;;;;;2.75;1.17;;;19.50;99.90;;;;;;5075555;28;20071;-89
2023/09/21 07:45:45;;;;;;;2.42;1.00;;;;;;;;;;5075726;28;20465;-90
2023/09/21 07:48:12;;;;;;;5.45;1.85;;;;;;;;;;5058034;28;20528;-85
2023/09/21 07:50:38;;;;;;;5.43;1.10;;;;;;;;;;5084049;28;20089;-87
2023/09/21 07:53:05;;;;;;;4.70;1.13;;;;;;;;;;5050544;28;20035;-90
2023/09/21 07:55:30;;;;;;;6.07;1.25;;;19.80;99.90;;;;;;5058507;28;20091;-92
2023/09/21 07:57:56;;;;;;;3.63;1.30;;;19.90;99.90;;;;;;5076212;28;20473;-89
2023/09/21 08:00:23;;;;;;;2.28;0.98;;;;;;;;;;5054380;28;20098;-94
2023/09/21 08:02:49;;;;;;;3.13;1.30;;;20.20;99.90;;;;;;5060554;28;20043;-90
2023/09/21 08:05:20;;;;;;;6.53;1.23;;;20.40;99.90;;;;;;5071362;28;20039;-89
2023/09/21 08:07:49;;;;;;;4.43;1.13;;;20.30;99.90;;;;;;5075666;28;20032;-86
2023/09/21 08:10:16;;;;;;;4.40;1.00;;;;;;;;;;5053110;28;20047;-91
2023/09/21 08:12:42;;;;;;;2.60;0.85;;;;;;;;;;5055991;28;20028;-89
2023/09/21 08:15:11;;;;;;;2.80;0.95;;;;;;;;;;5061208;28;20035;-94
2023/09/21 08:17:38;;;;;;;4.60;1.60;;;20.70;99.90;;;;;;5053593;28;20048;-91
2023/09/21 08:20:05;;;;;;;4.47;1.20;;;20.50;99.90;;;;;;5053816;28;20134;-86
2023/09/21 08:22:32;;;;;;;3.53;1.27;;;;;;;;;;5040014;28;20086;-90
2023/09/21 08:24:58;;;;;;;5.25;1.17;;;;;;;;;;5049851;28;20040;-91
2023/09/21 08:27:29;;;;;;;3.95;1.05;;;20.20;99.90;;;;;;5045462;28;20047;-89
2023/09/21 08:29:58;;;;;;;2.78;1.13;;;20.10;99.90;;;;;;5050521;28;20530;-90
2023/09/21 08:32:26;;;;;;;3.50;1.25;;;20.00;99.90;;;;;;5027904;28;20102;-92
2023/09/21 08:35:00;;;;;;;4.63;1.20;;;20.00;99.90;;;;;;5045998;28;20033;-91
2023/09/21 08:37:29;;;;;;;6.10;1.60;;;19.60;99.90;;;;;;5027182;28;20182;-92
2023/09/21 08:40:02;;;;;;;4.63;1.13;;;19.70;99.90;;;;;;5041918;28;20048;-92
2023/09/21 08:42:31;;;;;;;4.03;1.83;;;19.90;99.90;;;;;;5012758;28;20040;-90
2023/09/21 08:45:08;;;;;;;3.13;1.27;;;19.80;99.90;;;;;;5038873;28;20119;-92
2023/09/21 08:47:34;;;;;;;4.80;1.10;;;;;;;;;;5010424;28;20040;-91
2023/09/21 08:50:12;;;;;;;5.20;1.50;;;19.90;99.90;;;;;;5026330;28;20045;-94
2023/09/21 08:52:39;;;;;;;3.10;1.25;;;20.20;99.90;;;;;;5030833;28;20047;-95
2023/09/21 08:55:10;;;;;;;4.90;1.45;;;19.80;99.90;;;;;;5030439;28;20041;-94
2023/09/21 08:58:20;;;;;;;6.10;1.40;;;20.10;99.90;;;;;;5036200;28;20068;-93
2023/09/21 09:00:54;;;;;;;3.00;1.33;;;20.00;99.90;;;;;;5035787;28;20529;-89
2023/09/21 09:03:26;;;;;;;4.07;1.20;;;20.00;99.90;;;;;;5032536;28;20064;-88
2023/09/21 09:05:58;;;;;;;3.15;1.35;;;19.90;99.90;;;;;;5036687;28;20045;-91
2023/09/21 09:08:45;;;;;;;3.95;1.48;;;;;;;;;;5034629;28;20041;-86
2023/09/21 09:11:50;;;;;;;5.60;1.75;;;19.80;99.90;;;;;;5049755;28;20069;-87
2023/09/21 09:14:22;;;;;;;4.00;1.60;;;19.70;99.90;;;;;;5048859;28;20040;-94
2023/09/21 09:16:49;;;;;;;5.70;2.08;;;;;;;;;;5032249;28;20129;-92
2023/09/21 09:19:16;;;;;;;4.32;1.60;;;19.60;99.90;;;;;;5043989;28;20475;-94
2023/09/21 09:21:42;;;;;;;7.97;1.73;;;;;;;;;;5026432;28;20048;-88
2023/09/21 09:24:22;;;;;;;3.38;1.85;;;19.90;99.90;;;;;;5038938;28;20076;-89
2023/09/21 09:26:57;;;;;;;5.03;1.80;;;19.40;99.90;;;;;;5045324;28;20037;-94
2023/09/21 09:30:18;;;;;;;;;;;;;;;;;;;;;
2023/09/21 09:33:09;;;;;;;3.80;2.10;;;19.50;99.90;;;;;;4989681;28;20096;-90
2023/09/21 09:35:52;;;;;;;3.40;1.77;;;19.70;99.90;;;;;;4994373;28;20113;-92
2023/09/21 09:38:18;;;;;;;5.50;1.95;;;;;;;;;;4990506;28;20273;-91
2023/09/21 09:40:46;;;;;;;3.40;1.67;;;19.40;99.90;;;;;;4976735;28;20073;-93
2023/09/21 09:43:20;;;;;;;4.97;1.65;;;19.40;99.90;;;;;;4980192;28;20130;-87
2023/09/21 09:45:47;;;;;;;6.72;2.17;;;;;;;;;;4969141;28;20166;-85
2023/09/21 09:48:19;;;;;;;5.22;2.17;;;19.30;99.90;;;;;;4971865;28;20033;-92
2023/09/21 09:50:55;;;;;;;5.63;2.08;;;19.30;99.90;;;;;;4972978;28;20046;-91
2023/09/21 09:53:23;;;;;;;5.18;2.42;;;;;;;;;;4968789;28;20065;-92
2023/09/21 09:55:53;;;;;;;5.95;2.45;;;19.20;99.90;;;;;;4967078;28;20884;-91
2023/09/21 09:58:27;;;;;;;5.68;2.47;;;19.20;99.90;;;;;;4967389;28;20129;-91
2023/09/21 10:00:53;;;;;;;4.70;2.30;;;;;;;;;;4983168;28;20045;-89
2023/09/21 10:03:23;;;;;;;4.70;1.73;;;;;;;;;;4967996;28;20137;-89
2023/09/21 10:05:52;;;;;;;4.80;2.33;;;18.90;99.90;;;;;;5007554;28;20049;-88
2023/09/21 10:08:26;;;;;;;4.07;2.35;;;18.80;99.90;;;;;;5041689;28;20563;-90
2023/09/21 10:10:57;;;;;;;5.07;2.03;;;18.70;99.90;;;;;;5034513;28;20417;-91
2023/09/21 10:13:30;;;;;;;4.50;2.40;;;18.60;99.90;;;;;;5054063;28;20044;-94
2023/09/21 10:16:04;;;;;;;7.68;2.38;;;18.60;99.90;;;;;;5042099;28;20044;-93
2023/09/21 10:18:41;;;;;;;5.90;2.33;;;18.50;99.90;;;;;;5028170;28;20388;-93
2023/09/21 10:21:31;;;;;;;5.40;2.50;;;18.50;99.90;;;;;;5013016;28;20045;-89
2023/09/21 10:24:12;;;;;;;4.15;2.42;;;18.10;99.90;;;;;;5016548;28;20182;-92
2023/09/21 10:26:43;;;;;;;3.85;2.17;;;18.20;99.90;;;;;;5039574;28;21036;-91
2023/09/21 10:29:13;;;;;;;5.03;2.08;;;18.10;99.90;;;;;;5020840;28;20150;-91
2023/09/21 10:31:43;;;;;;;5.07;2.30;;;18.10;99.90;;;;;;5015425;28;20045;-91
2023/09/21 10:34:09;;;;;;;3.80;2.78;;;;;;;;;;5008237;28;20044;-92
2023/09/21 10:36:50;;;;;;;6.07;2.88;;;18.00;99.90;;;;;;4999741;28;20044;-88
2023/09/21 10:39:24;;;;;;;5.10;2.65;;;17.90;99.90;;;;;;5010446;28;20037;-92
2023/09/21 10:42:12;;;;;;;3.53;2.58;;;17.90;99.90;;;;;;4988026;28;20040;-88
2023/09/21 10:44:55;;;;;;;4.45;2.30;;;17.60;99.90;;;;;;5000031;28;20045;-91
2023/09/21 10:47:30;;;;;;;11.25;3.50;;;17.30;99.90;;;;;;5005412;28;20537;-90
2023/09/21 10:49:59;;;;;;;5.15;2.45;;;17.60;99.90;;;;;;5005570;28;20740;-89
2023/09/21 10:52:28;;;;;;;5.30;2.72;;;17.70;99.90;;;;;;4996323;28;20048;-90
2023/09/21 10:55:08;;;;;;;;;;;;;;;;;;;;;
2023/09/21 10:57:42;;;;;;;1.50;0.65;;;17.30;99.90;;;;;;5033994;28;20043;-92
2023/09/21 11:00:20;;;;;;;1.50;0.43;;;17.30;99.90;;;;;;5023518;28;20049;-92
2023/09/21 11:02:47;;;;;;;2.17;0.50;;;17.30;99.90;;;;;;5034648;28;20116;-87
2023/09/21 11:05:17;;;;;;;1.75;0.40;;;17.30;99.90;;;;;;5009855;28;20569;-92
2023/09/21 11:07:47;;;;;;;2.17;0.30;;;17.30;99.90;;;;;;5005708;28;20575;-91
2023/09/21 11:10:14;;;;;;;1.77;0.50;;;;;;;;;;5018567;28;20225;-86
2023/09/21 11:12:40;;;;;;;1.73;0.22;;;17.40;99.90;;;;;;4993671;28;20040;-84
2023/09/21 11:15:16;;;;;;;2.08;0.30;;;17.30;99.90;;;;;;5002432;28;20560;-86
2023/09/21 11:17:44;;;;;;;0.90;0.30;;;17.30;99.90;;;;;;4999750;28;20056;-84
2023/09/21 11:20:30;;;;;;;0.73;0.22;;;17.30;99.90;;;;;;5027769;28;20128;-86
2023/09/21 11:22:57;;;;;;;1.92;0.57;;;;;;;;;;5038926;28;20123;-89
2023/09/21 11:25:23;;;;;;;0.63;0.20;;;17.30;99.90;;;;;;5003132;28;20033;-85
2023/09/21 11:27:49;;;;;;;2.25;0.30;;;16.70;99.90;;;;;;5028217;28;20110;-86
2023/09/21 11:30:17;;;;;;;1.15;0.30;;;;;;;;;;5000385;28;20568;-86
2023/09/21 11:32:48;;;;;;;2.40;0.50;;;17.20;99.90;;;;;;5011521;28;20115;-86
2023/09/21 11:35:21;;;;;;;1.48;0.40;;;17.50;99.90;;;;;;4996805;28;20040;-85
2023/09/21 11:37:49;;;;;;;2.03;0.32;;;17.10;99.90;;;;;;4998973;28;20036;-83
2023/09/21 11:40:21;;;;;;;3.38;0.47;;;17.10;99.90;;;;;;4998258;28;20052;-83
2023/09/21 11:42:48;;;;;;;2.00;0.30;;;17.00;99.90;;;;;;4991361;28;20037;-83
2023/09/21 11:45:19;;;;;;;1.38;0.60;;;17.00;99.90;;;;;;5017723;28;20450;-83
2023/09/21 11:47:54;;;;;;;1.20;0.50;;;17.00;99.90;;;;;;4993433;28;20041;-84
2023/09/21 11:50:27;;;;;;;4.32;1.08;;;17.90;99.90;;;;;;5001110;28;20045;-83
2023/09/21 11:52:56;;;;;;;1.05;0.30;;;17.20;99.90;;;;;;4999471;28;20123;-83
2023/09/21 11:55:28;;;;;;;1.48;0.40;;;17.10;99.90;;;;;;4997179;28;20029;-86
2023/09/21 11:58:11;;;;;;;1.30;0.30;;;17.10;99.90;;;;;;5006395;28;20033;-85
2023/09/21 12:00:53;;;;;;;3.30;0.35;;;17.40;99.90;;;;;;5023918;28;20878;-84
2023/09/21 12:03:23;;;;;;;1.85;0.40;;;17.80;99.90;;;;;;5021984;28;20087;-84
2023/09/21 12:05:50;;;;;;;3.42;0.50;;;18.30;99.90;;;;;;5000228;28;20045;-84
2023/09/21 12:08:16;;;;;;;4.07;0.60;;;18.40;99.90;;;;;;4999544;28;20041;-83
2023/09/21 12:10:47;;;;;;;1.23;0.50;;;18.60;99.90;;;;;;5004517;28;20111;-84
2023/09/21 12:13:13;;;;;;;1.00;0.30;;;;;;;;;;5015108;28;20120;-84
2023/09/21 12:15:40;;;;;;;1.52;0.43;;;18.80;99.90;;;;;;5000258;28;20035;-82
2023/09/21 12:18:12;;;;;;;1.08;0.30;;;;;;;;;;5010468;28;20048;-82
2023/09/21 12:20:42;;;;;;;1.70;0.32;;;18.90;99.90;;;;;;5006044;28;20176;-84
2023/09/21 12:23:09;;;;;;;1.60;0.30;;;;;;;;;;4986812;28;20044;-84
2023/09/21 12:25:35;;;;;;;2.47;0.40;;;;;;;;;;5002903;28;20056;-84
2023/09/21 12:28:01;;;;;;;1.90;0.32;;;;;;;;;;4989424;28;20128;-85
2023/09/21 12:30:30;;;;;;;2.15;0.55;;;;;;;;;;5008135;28;20565;-86
2023/09/21 12:32:56;;;;;;;2.35;0.35;;;;;;;;;;4990876;28;20037;-85
2023/09/21 12:35:25;;;;;;;1.58;0.30;;;;;;;;;;4990915;28;20049;-86
2023/09/21 12:37:52;;;;;;;1.95;0.50;;;17.90;99.90;;;;;;4989689;28;20806;-85
2023/09/21 12:40:19;;;;;;;2.67;1.05;;;;;;;;;;4970292;28;20037;-87
2023/09/21 12:42:45;;;;;;;1.73;0.30;;;17.90;99.90;;;;;;4985632;28;20510;-86
2023/09/21 12:45:14;;;;;;;5.50;0.30;;;18.50;99.90;;;;;;4988723;28;21587;-86
2023/09/21 12:47:44;;;;;;;0.73;0.30;;;18.10;99.90;;;;;;4984190;28;20068;-87
2023/09/21 12:50:12;;;;;;;0.85;0.20;;;18.00;99.90;;;;;;5002119;28;20052;-92
2023/09/21 12:52:42;;;;;;;1.75;0.13;;;18.00;99.90;;;;;;4995835;28;20530;-86
2023/09/21 12:55:09;;;;;;;1.30;0.20;;;18.10;99.90;;;;;;5011931;28;20547;-85
2023/09/21 12:57:37;;;;;;;0.82;0.15;;;14.80;99.90;;;;;;4999895;28;20037;-85
2023/09/21 13:00:11;;;;;;;0.70;0.10;;;18.20;99.90;;;;;;4991230;28;20880;-87
2023/09/21 13:02:40;;;;;;;1.25;0.13;;;17.90;99.90;;;;;;4987930;28;20048;-86
2023/09/21 13:05:10;;;;;;;1.50;0.10;;;17.70;99.90;;;;;;5012488;28;20052;-87
2023/09/21 13:07:36;;;;;;;0.68;0.20;;;;;;;;;;5012935;28;20094;-90
2023/09/21 13:10:03;;;;;;;1.30;0.20;;;;;;;;;;4997789;28;20600;-85
2023/09/21 13:12:29;;;;;;;1.02;0.20;;;;;;;;;;5004630;28;20041;-85
2023/09/21 13:14:55;;;;;;;0.60;0.20;;;;;;;;;;4998810;28;20161;-88
2023/09/21 13:17:23;;;;;;;2.05;0.28;;;;;;;;;;5016090;28;20051;-87
2023/09/21 13:19:49;;;;;;;1.48;0.10;;;18.10;99.90;;;;;;5029496;28;22286;-92
2023/09/21 13:22:18;;;;;;;0.77;0.20;;;18.60;99.90;;;;;;5046875;28;20075;-87
2023/09/21 13:24:46;;;;;;;1.00;0.10;;;;;;;;;;5057265;28;20137;-88
2023/09/21 13:27:13;;;;;;;1.40;0.20;;;;;;;;;;5054905;28;20063;-88
2023/09/21 13:29:40;;;;;;;1.02;0.30;;;18.90;99.90;;;;;;5055293;28;20040;-87